sensor_id;sensor_type;location;lat;lon;timestamp;P1;durP1;ratioP1;P2;durP2;ratioP2
44893;SDS011;30625;52.206;21.030;2023-03-03T00:01:47;85.70;;;34.17;;
44893;SDS011;30625;52.206;21.030;2023-03-03T00:04:13;84.38;;;34.92;;
44893;SDS011;30625;52.206;21.030;2023-03-03T00:06:39;94.68;;;38.35;;
44893;SDS011;30625;52.206;21.030;2023-03-03T00:09:05;86.05;;;34.55;;
44893;SDS011;30625;52.206;21.030;2023-03-03T00:11:30;94.13;;;38.00;;
44893;SDS011;30625;52.206;21.030;2023-03-03T00:13:56;99.32;;;43.13;;
44893;SDS011;30625;52.206;21.030;2023-03-03T00:16:30;99.82;;;42.85;;
44893;SDS011;30625;52.206;21.030;2023-03-03T00:19:00;110.00;;;44.47;;
44893;SDS011;30625;52.206;21.030;2023-03-03T00:26:38;113.30;;;46.60;;
44893;SDS011;30625;52.206;21.030;2023-03-03T00:31:53;107.63;;;45.38;;
44893;SDS011;30625;52.206;21.030;2023-03-03T00:34:26;108.57;;;45.30;;
44893;SDS011;30625;52.206;21.030;2023-03-03T00:36:55;98.88;;;43.28;;
44893;SDS011;30625;52.206;21.030;2023-03-03T00:39:29;109.65;;;46.05;;
44893;SDS011;30625;52.206;21.030;2023-03-03T00:42:00;92.40;;;40.53;;
44893;SDS011;30625;52.206;21.030;2023-03-03T00:44:38;101.72;;;40.70;;
44893;SDS011;30625;52.206;21.030;2023-03-03T00:49:49;87.55;;;37.60;;
44893;SDS011;30625;52.206;21.030;2023-03-03T00:52:16;82.47;;;35.58;;
44893;SDS011;30625;52.206;21.030;2023-03-03T00:54:43;79.35;;;36.10;;
44893;SDS011;30625;52.206;21.030;2023-03-03T00:57:09;77.60;;;34.42;;
44893;SDS011;30625;52.206;21.030;2023-03-03T00:59:36;85.18;;;35.35;;
44893;SDS011;30625;52.206;21.030;2023-03-03T01:02:03;81.70;;;32.78;;
44893;SDS011;30625;52.206;21.030;2023-03-03T01:04:29;79.75;;;31.40;;
44893;SDS011;30625;52.206;21.030;2023-03-03T01:06:55;77.70;;;32.80;;
44893;SDS011;30625;52.206;21.030;2023-03-03T01:09:21;72.25;;;30.42;;
44893;SDS011;30625;52.206;21.030;2023-03-03T01:11:47;63.85;;;27.92;;
44893;SDS011;30625;52.206;21.030;2023-03-03T01:14:13;67.28;;;28.23;;
44893;SDS011;30625;52.206;21.030;2023-03-03T01:16:39;65.90;;;29.02;;
44893;SDS011;30625;52.206;21.030;2023-03-03T01:19:06;62.60;;;28.38;;
44893;SDS011;30625;52.206;21.030;2023-03-03T01:21:32;64.40;;;29.52;;
44893;SDS011;30625;52.206;21.030;2023-03-03T01:23:57;67.93;;;29.50;;
44893;SDS011;30625;52.206;21.030;2023-03-03T01:26:23;64.07;;;27.73;;
44893;SDS011;30625;52.206;21.030;2023-03-03T01:28:49;64.15;;;27.05;;
44893;SDS011;30625;52.206;21.030;2023-03-03T01:31:15;68.28;;;27.23;;
44893;SDS011;30625;52.206;21.030;2023-03-03T01:33:41;60.28;;;25.30;;
44893;SDS011;30625;52.206;21.030;2023-03-03T01:36:07;59.47;;;26.38;;
44893;SDS011;30625;52.206;21.030;2023-03-03T01:56:34;67.85;;;28.80;;
44893;SDS011;30625;52.206;21.030;2023-03-03T01:59:01;59.58;;;27.60;;
44893;SDS011;30625;52.206;21.030;2023-03-03T02:01:31;66.32;;;29.33;;
44893;SDS011;30625;52.206;21.030;2023-03-03T02:03:58;62.30;;;29.42;;
44893;SDS011;30625;52.206;21.030;2023-03-03T02:06:32;70.72;;;30.15;;
44893;SDS011;30625;52.206;21.030;2023-03-03T02:09:15;63.58;;;29.98;;
44893;SDS011;30625;52.206;21.030;2023-03-03T02:11:43;65.28;;;28.83;;
44893;SDS011;30625;52.206;21.030;2023-03-03T02:14:11;64.97;;;28.30;;
44893;SDS011;30625;52.206;21.030;2023-03-03T02:16:37;63.53;;;29.25;;
44893;SDS011;30625;52.206;21.030;2023-03-03T02:19:04;74.85;;;31.55;;
44893;SDS011;30625;52.206;21.030;2023-03-03T02:21:35;74.75;;;30.90;;
44893;SDS011;30625;52.206;21.030;2023-03-03T02:26:33;71.35;;;31.58;;
44893;SDS011;30625;52.206;21.030;2023-03-03T02:29:01;78.20;;;31.65;;
44893;SDS011;30625;52.206;21.030;2023-03-03T02:31:28;78.38;;;32.20;;
44893;SDS011;30625;52.206;21.030;2023-03-03T02:33:55;69.72;;;32.10;;
44893;SDS011;30625;52.206;21.030;2023-03-03T02:36:29;66.35;;;30.70;;
44893;SDS011;30625;52.206;21.030;2023-03-03T02:39:17;74.50;;;31.83;;
44893;SDS011;30625;52.206;21.030;2023-03-03T02:44:32;77.10;;;34.17;;
44893;SDS011;30625;52.206;21.030;2023-03-03T02:46:58;73.15;;;32.60;;
44893;SDS011;30625;52.206;21.030;2023-03-03T02:49:28;71.68;;;30.35;;
44893;SDS011;30625;52.206;21.030;2023-03-03T02:51:56;70.20;;;30.70;;
44893;SDS011;30625;52.206;21.030;2023-03-03T02:54:24;76.20;;;33.28;;
44893;SDS011;30625;52.206;21.030;2023-03-03T02:56:51;63.78;;;28.55;;
44893;SDS011;30625;52.206;21.030;2023-03-03T02:59:17;64.55;;;29.75;;
44893;SDS011;30625;52.206;21.030;2023-03-03T03:01:44;68.38;;;30.38;;
44893;SDS011;30625;52.206;21.030;2023-03-03T03:04:20;75.13;;;31.00;;
44893;SDS011;30625;52.206;21.030;2023-03-03T03:06:48;68.20;;;28.75;;
44893;SDS011;30625;52.206;21.030;2023-03-03T03:09:14;71.57;;;29.38;;
44893;SDS011;30625;52.206;21.030;2023-03-03T03:11:40;73.25;;;30.90;;
44893;SDS011;30625;52.206;21.030;2023-03-03T03:14:07;69.40;;;29.08;;
44893;SDS011;30625;52.206;21.030;2023-03-03T03:16:34;68.15;;;28.88;;
44893;SDS011;30625;52.206;21.030;2023-03-03T03:19:01;70.43;;;29.42;;
44893;SDS011;30625;52.206;21.030;2023-03-03T03:21:28;69.68;;;29.30;;
44893;SDS011;30625;52.206;21.030;2023-03-03T03:23:57;72.95;;;30.60;;
44893;SDS011;30625;52.206;21.030;2023-03-03T03:26:23;67.10;;;29.45;;
44893;SDS011;30625;52.206;21.030;2023-03-03T03:28:49;78.57;;;33.22;;
44893;SDS011;30625;52.206;21.030;2023-03-03T03:31:15;78.88;;;32.28;;
44893;SDS011;30625;52.206;21.030;2023-03-03T03:33:41;78.05;;;31.33;;
44893;SDS011;30625;52.206;21.030;2023-03-03T03:36:07;78.72;;;31.95;;
44893;SDS011;30625;52.206;21.030;2023-03-03T03:38:33;68.07;;;30.85;;
44893;SDS011;30625;52.206;21.030;2023-03-03T03:41:01;75.55;;;31.55;;
44893;SDS011;30625;52.206;21.030;2023-03-03T03:43:31;69.35;;;30.90;;
44893;SDS011;30625;52.206;21.030;2023-03-03T03:45:57;76.30;;;32.15;;
44893;SDS011;30625;52.206;21.030;2023-03-03T03:48:22;73.82;;;29.95;;
44893;SDS011;30625;52.206;21.030;2023-03-03T03:50:48;78.38;;;32.47;;
44893;SDS011;30625;52.206;21.030;2023-03-03T03:53:17;80.60;;;33.47;;
44893;SDS011;30625;52.206;21.030;2023-03-03T03:55:43;83.30;;;33.13;;
44893;SDS011;30625;52.206;21.030;2023-03-03T03:58:16;65.63;;;30.38;;
44893;SDS011;30625;52.206;21.030;2023-03-03T04:00:42;73.00;;;32.05;;
44893;SDS011;30625;52.206;21.030;2023-03-03T04:03:09;78.95;;;32.78;;
44893;SDS011;30625;52.206;21.030;2023-03-03T04:05:35;84.68;;;34.10;;
44893;SDS011;30625;52.206;21.030;2023-03-03T04:08:02;77.22;;;31.52;;
44893;SDS011;30625;52.206;21.030;2023-03-03T04:10:28;72.40;;;30.75;;
44893;SDS011;30625;52.206;21.030;2023-03-03T04:12:54;75.78;;;31.85;;
44893;SDS011;30625;52.206;21.030;2023-03-03T04:15:20;76.82;;;32.67;;
44893;SDS011;30625;52.206;21.030;2023-03-03T04:17:46;80.82;;;32.40;;
44893;SDS011;30625;52.206;21.030;2023-03-03T04:20:13;86.00;;;35.33;;
44893;SDS011;30625;52.206;21.030;2023-03-03T04:22:39;83.40;;;33.55;;
44893;SDS011;30625;52.206;21.030;2023-03-03T04:25:06;78.43;;;31.85;;
44893;SDS011;30625;52.206;21.030;2023-03-03T04:27:33;75.68;;;32.08;;
44893;SDS011;30625;52.206;21.030;2023-03-03T04:30:00;78.93;;;33.45;;
44893;SDS011;30625;52.206;21.030;2023-03-03T04:32:27;79.18;;;34.65;;
44893;SDS011;30625;52.206;21.030;2023-03-03T04:34:53;78.85;;;31.63;;
44893;SDS011;30625;52.206;21.030;2023-03-03T04:37:19;75.55;;;30.60;;
44893;SDS011;30625;52.206;21.030;2023-03-03T04:39:45;82.65;;;33.05;;
44893;SDS011;30625;52.206;21.030;2023-03-03T04:42:11;80.38;;;32.17;;
44893;SDS011;30625;52.206;21.030;2023-03-03T04:44:37;70.40;;;30.45;;
44893;SDS011;30625;52.206;21.030;2023-03-03T04:47:03;74.07;;;32.25;;
44893;SDS011;30625;52.206;21.030;2023-03-03T04:49:28;81.78;;;34.08;;
44893;SDS011;30625;52.206;21.030;2023-03-03T04:51:54;80.65;;;33.13;;
44893;SDS011;30625;52.206;21.030;2023-03-03T04:56:46;84.60;;;30.25;;
44893;SDS011;30625;52.206;21.030;2023-03-03T04:59:12;79.82;;;33.38;;
44893;SDS011;30625;52.206;21.030;2023-03-03T05:01:38;77.50;;;30.85;;
44893;SDS011;30625;52.206;21.030;2023-03-03T05:04:04;73.22;;;32.35;;
44893;SDS011;30625;52.206;21.030;2023-03-03T05:06:30;87.13;;;34.35;;
44893;SDS011;30625;52.206;21.030;2023-03-03T05:08:55;82.47;;;34.10;;
44893;SDS011;30625;52.206;21.030;2023-03-03T05:11:21;84.93;;;34.65;;
44893;SDS011;30625;52.206;21.030;2023-03-03T05:13:47;76.45;;;33.22;;
44893;SDS011;30625;52.206;21.030;2023-03-03T05:16:12;83.75;;;32.78;;
44893;SDS011;30625;52.206;21.030;2023-03-03T05:18:38;90.00;;;34.50;;
44893;SDS011;30625;52.206;21.030;2023-03-03T05:21:04;90.25;;;35.50;;
44893;SDS011;30625;52.206;21.030;2023-03-03T05:23:30;87.95;;;36.30;;
44893;SDS011;30625;52.206;21.030;2023-03-03T05:25:56;86.65;;;35.00;;
44893;SDS011;30625;52.206;21.030;2023-03-03T05:28:22;89.47;;;35.75;;
44893;SDS011;30625;52.206;21.030;2023-03-03T05:30:48;84.25;;;34.55;;
44893;SDS011;30625;52.206;21.030;2023-03-03T05:33:14;79.57;;;31.70;;
44893;SDS011;30625;52.206;21.030;2023-03-03T05:35:41;88.28;;;36.05;;
44893;SDS011;30625;52.206;21.030;2023-03-03T05:38:07;94.93;;;36.47;;
44893;SDS011;30625;52.206;21.030;2023-03-03T05:40:33;85.28;;;34.25;;
44893;SDS011;30625;52.206;21.030;2023-03-03T05:42:58;98.22;;;38.22;;
44893;SDS011;30625;52.206;21.030;2023-03-03T05:45:24;85.57;;;35.67;;
44893;SDS011;30625;52.206;21.030;2023-03-03T05:47:50;99.50;;;36.30;;
44893;SDS011;30625;52.206;21.030;2023-03-03T05:50:17;91.65;;;38.72;;
44893;SDS011;30625;52.206;21.030;2023-03-03T05:52:43;98.68;;;36.80;;
44893;SDS011;30625;52.206;21.030;2023-03-03T05:55:11;91.07;;;36.90;;
44893;SDS011;30625;52.206;21.030;2023-03-03T05:57:37;98.65;;;37.80;;
44893;SDS011;30625;52.206;21.030;2023-03-03T06:00:03;90.20;;;37.53;;
44893;SDS011;30625;52.206;21.030;2023-03-03T06:02:30;92.20;;;38.00;;
44893;SDS011;30625;52.206;21.030;2023-03-03T06:04:56;105.68;;;38.42;;
44893;SDS011;30625;52.206;21.030;2023-03-03T06:07:22;102.30;;;39.20;;
44893;SDS011;30625;52.206;21.030;2023-03-03T06:09:47;99.35;;;38.83;;
44893;SDS011;30625;52.206;21.030;2023-03-03T06:12:13;100.15;;;35.85;;
44893;SDS011;30625;52.206;21.030;2023-03-03T06:14:42;104.38;;;38.20;;
44893;SDS011;30625;52.206;21.030;2023-03-03T06:17:08;95.35;;;37.85;;
44893;SDS011;30625;52.206;21.030;2023-03-03T06:19:38;98.55;;;37.38;;
44893;SDS011;30625;52.206;21.030;2023-03-03T06:22:05;102.55;;;39.25;;
44893;SDS011;30625;52.206;21.030;2023-03-03T06:24:31;109.75;;;40.47;;
44893;SDS011;30625;52.206;21.030;2023-03-03T06:26:58;115.43;;;41.80;;
44893;SDS011;30625;52.206;21.030;2023-03-03T06:31:50;115.13;;;39.97;;
44893;SDS011;30625;52.206;21.030;2023-03-03T06:34:16;112.03;;;39.97;;
44893;SDS011;30625;52.206;21.030;2023-03-03T06:36:42;101.72;;;37.75;;
44893;SDS011;30625;52.206;21.030;2023-03-03T06:39:18;102.50;;;39.67;;
44893;SDS011;30625;52.206;21.030;2023-03-03T06:41:43;104.78;;;38.58;;
44893;SDS011;30625;52.206;21.030;2023-03-03T06:44:09;93.35;;;37.22;;
44893;SDS011;30625;52.206;21.030;2023-03-03T06:46:36;99.07;;;39.70;;
44893;SDS011;30625;52.206;21.030;2023-03-03T06:49:01;96.55;;;33.85;;
44893;SDS011;30625;52.206;21.030;2023-03-03T06:51:34;94.10;;;36.17;;
44893;SDS011;30625;52.206;21.030;2023-03-03T06:54:10;97.30;;;35.97;;
44893;SDS011;30625;52.206;21.030;2023-03-03T06:56:38;95.78;;;36.03;;
44893;SDS011;30625;52.206;21.030;2023-03-03T06:59:13;91.93;;;35.70;;
44893;SDS011;30625;52.206;21.030;2023-03-03T07:01:44;99.65;;;36.60;;
44893;SDS011;30625;52.206;21.030;2023-03-03T07:04:27;105.30;;;36.00;;
44893;SDS011;30625;52.206;21.030;2023-03-03T07:06:57;90.57;;;33.10;;
44893;SDS011;30625;52.206;21.030;2023-03-03T07:09:31;82.43;;;33.38;;
44893;SDS011;30625;52.206;21.030;2023-03-03T07:12:00;86.15;;;32.20;;
44893;SDS011;30625;52.206;21.030;2023-03-03T07:14:33;82.30;;;31.13;;
44893;SDS011;30625;52.206;21.030;2023-03-03T07:17:14;77.28;;;30.40;;
44893;SDS011;30625;52.206;21.030;2023-03-03T07:19:48;85.47;;;31.95;;
44893;SDS011;30625;52.206;21.030;2023-03-03T07:22:29;76.95;;;27.85;;
44893;SDS011;30625;52.206;21.030;2023-03-03T07:24:59;73.15;;;30.70;;
44893;SDS011;30625;52.206;21.030;2023-03-03T07:27:30;80.72;;;29.38;;
44893;SDS011;30625;52.206;21.030;2023-03-03T07:32:44;69.30;;;26.73;;
44893;SDS011;30625;52.206;21.030;2023-03-03T07:38:10;75.70;;;26.10;;
44893;SDS011;30625;52.206;21.030;2023-03-03T07:40:42;74.45;;;27.70;;
44893;SDS011;30625;52.206;21.030;2023-03-03T07:48:43;85.75;;;28.27;;
44893;SDS011;30625;52.206;21.030;2023-03-03T07:51:15;72.68;;;25.58;;
44893;SDS011;30625;52.206;21.030;2023-03-03T07:53:48;72.78;;;26.10;;
44893;SDS011;30625;52.206;21.030;2023-03-03T07:56:20;79.25;;;26.48;;
44893;SDS011;30625;52.206;21.030;2023-03-03T07:58:59;86.32;;;28.17;;
44893;SDS011;30625;52.206;21.030;2023-03-03T08:04:15;78.40;;;26.25;;
44893;SDS011;30625;52.206;21.030;2023-03-03T08:07:00;75.38;;;26.10;;
44893;SDS011;30625;52.206;21.030;2023-03-03T08:09:37;73.63;;;25.02;;
44893;SDS011;30625;52.206;21.030;2023-03-03T08:12:39;71.10;;;26.33;;
44893;SDS011;30625;52.206;21.030;2023-03-03T08:15:14;75.07;;;25.17;;
44893;SDS011;30625;52.206;21.030;2023-03-03T08:17:43;60.08;;;22.63;;
44893;SDS011;30625;52.206;21.030;2023-03-03T08:22:53;63.13;;;24.00;;
44893;SDS011;30625;52.206;21.030;2023-03-03T08:25:19;63.42;;;23.42;;
44893;SDS011;30625;52.206;21.030;2023-03-03T08:27:45;65.90;;;25.48;;
44893;SDS011;30625;52.206;21.030;2023-03-03T08:30:11;71.82;;;24.40;;
44893;SDS011;30625;52.206;21.030;2023-03-03T08:32:41;57.70;;;22.48;;
44893;SDS011;30625;52.206;21.030;2023-03-03T08:35:07;57.47;;;23.48;;
44893;SDS011;30625;52.206;21.030;2023-03-03T08:37:36;71.22;;;24.60;;
44893;SDS011;30625;52.206;21.030;2023-03-03T08:40:04;65.25;;;25.02;;
44893;SDS011;30625;52.206;21.030;2023-03-03T08:42:33;63.08;;;25.63;;
44893;SDS011;30625;52.206;21.030;2023-03-03T08:44:59;69.35;;;23.77;;
44893;SDS011;30625;52.206;21.030;2023-03-03T08:47:25;63.20;;;22.63;;
44893;SDS011;30625;52.206;21.030;2023-03-03T08:49:53;75.10;;;27.02;;
44893;SDS011;30625;52.206;21.030;2023-03-03T08:52:22;71.68;;;25.73;;
44893;SDS011;30625;52.206;21.030;2023-03-03T08:54:51;57.78;;;22.63;;
44893;SDS011;30625;52.206;21.030;2023-03-03T08:57:20;59.50;;;23.77;;
44893;SDS011;30625;52.206;21.030;2023-03-03T08:59:45;61.42;;;22.95;;
44893;SDS011;30625;52.206;21.030;2023-03-03T09:02:13;60.17;;;23.77;;
44893;SDS011;30625;52.206;21.030;2023-03-03T09:04:41;60.63;;;23.73;;
44893;SDS011;30625;52.206;21.030;2023-03-03T09:07:07;58.10;;;22.30;;
44893;SDS011;30625;52.206;21.030;2023-03-03T09:09:32;55.22;;;22.15;;
44893;SDS011;30625;52.206;21.030;2023-03-03T09:11:58;58.70;;;22.25;;
44893;SDS011;30625;52.206;21.030;2023-03-03T09:14:31;64.68;;;23.42;;
44893;SDS011;30625;52.206;21.030;2023-03-03T09:16:57;64.88;;;23.17;;
44893;SDS011;30625;52.206;21.030;2023-03-03T09:21:54;66.68;;;24.20;;
44893;SDS011;30625;52.206;21.030;2023-03-03T09:24:28;61.90;;;23.77;;
44893;SDS011;30625;52.206;21.030;2023-03-03T09:26:56;62.47;;;24.65;;
44893;SDS011;30625;52.206;21.030;2023-03-03T09:29:26;70.57;;;23.60;;
44893;SDS011;30625;52.206;21.030;2023-03-03T09:32:07;70.32;;;24.88;;
44893;SDS011;30625;52.206;21.030;2023-03-03T09:34:42;64.45;;;24.92;;
44893;SDS011;30625;52.206;21.030;2023-03-03T09:39:51;65.38;;;23.52;;
44893;SDS011;30625;52.206;21.030;2023-03-03T10:04:24;60.03;;;22.95;;
44893;SDS011;30625;52.206;21.030;2023-03-03T10:10:02;61.85;;;22.85;;
44893;SDS011;30625;52.206;21.030;2023-03-03T10:15:09;62.35;;;23.25;;
44893;SDS011;30625;52.206;21.030;2023-03-03T10:18:41;69.90;;;23.65;;
44893;SDS011;30625;52.206;21.030;2023-03-03T10:23:54;61.97;;;23.58;;
44893;SDS011;30625;52.206;21.030;2023-03-03T10:32:06;57.40;;;20.80;;
44893;SDS011;30625;52.206;21.030;2023-03-03T10:45:58;57.10;;;21.48;;
44893;SDS011;30625;52.206;21.030;2023-03-03T11:04:33;56.13;;;19.27;;
44893;SDS011;30625;52.206;21.030;2023-03-03T11:15:51;41.85;;;17.83;;
44893;SDS011;30625;52.206;21.030;2023-03-03T11:21:22;52.78;;;20.45;;
44893;SDS011;30625;52.206;21.030;2023-03-03T11:31:52;45.47;;;18.15;;
44893;SDS011;30625;52.206;21.030;2023-03-03T11:34:38;42.58;;;17.27;;
44893;SDS011;30625;52.206;21.030;2023-03-03T11:37:37;38.40;;;16.25;;
44893;SDS011;30625;52.206;21.030;2023-03-03T11:40:14;34.53;;;14.77;;
44893;SDS011;30625;52.206;21.030;2023-03-03T11:43:02;39.80;;;18.02;;
44893;SDS011;30625;52.206;21.030;2023-03-03T11:45:42;41.30;;;17.83;;
44893;SDS011;30625;52.206;21.030;2023-03-03T11:48:15;42.17;;;17.70;;
44893;SDS011;30625;52.206;21.030;2023-03-03T11:50:48;41.90;;;16.85;;
44893;SDS011;30625;52.206;21.030;2023-03-03T11:59:04;41.58;;;17.98;;
44893;SDS011;30625;52.206;21.030;2023-03-03T12:12:24;44.83;;;16.92;;
44893;SDS011;30625;52.206;21.030;2023-03-03T12:15:03;38.53;;;17.65;;
44893;SDS011;30625;52.206;21.030;2023-03-03T12:17:53;41.25;;;17.85;;
44893;SDS011;30625;52.206;21.030;2023-03-03T12:26:01;47.28;;;17.20;;
44893;SDS011;30625;52.206;21.030;2023-03-03T12:47:31;40.13;;;16.95;;
44893;SDS011;30625;52.206;21.030;2023-03-03T13:03:48;33.17;;;14.25;;
44893;SDS011;30625;52.206;21.030;2023-03-03T13:07:17;34.63;;;15.43;;
44893;SDS011;30625;52.206;21.030;2023-03-03T13:12:27;31.92;;;14.10;;
44893;SDS011;30625;52.206;21.030;2023-03-03T13:28:24;44.28;;;15.25;;
44893;SDS011;30625;52.206;21.030;2023-03-03T13:31:05;35.15;;;15.23;;
44893;SDS011;30625;52.206;21.030;2023-03-03T13:33:56;38.28;;;15.05;;
44893;SDS011;30625;52.206;21.030;2023-03-03T13:36:27;35.95;;;17.00;;
44893;SDS011;30625;52.206;21.030;2023-03-03T13:38:56;40.17;;;15.85;;
44893;SDS011;30625;52.206;21.030;2023-03-03T13:44:30;41.92;;;14.35;;
44893;SDS011;30625;52.206;21.030;2023-03-03T13:52:14;34.28;;;14.60;;
44893;SDS011;30625;52.206;21.030;2023-03-03T13:57:42;44.88;;;16.42;;
44893;SDS011;30625;52.206;21.030;2023-03-03T14:03:30;41.00;;;15.15;;
44893;SDS011;30625;52.206;21.030;2023-03-03T14:06:16;30.17;;;14.48;;
44893;SDS011;30625;52.206;21.030;2023-03-03T14:11:53;30.58;;;12.40;;
44893;SDS011;30625;52.206;21.030;2023-03-03T14:22:51;37.70;;;14.32;;
44893;SDS011;30625;52.206;21.030;2023-03-03T14:25:21;33.42;;;14.63;;
44893;SDS011;30625;52.206;21.030;2023-03-03T14:35:35;37.92;;;15.70;;
44893;SDS011;30625;52.206;21.030;2023-03-03T14:38:15;37.50;;;14.77;;
44893;SDS011;30625;52.206;21.030;2023-03-03T14:40:43;41.35;;;15.68;;
44893;SDS011;30625;52.206;21.030;2023-03-03T14:43:19;39.35;;;15.95;;
44893;SDS011;30625;52.206;21.030;2023-03-03T14:45:50;39.00;;;14.82;;
44893;SDS011;30625;52.206;21.030;2023-03-03T14:50:47;35.40;;;14.18;;
44893;SDS011;30625;52.206;21.030;2023-03-03T14:56:13;43.17;;;15.38;;
44893;SDS011;30625;52.206;21.030;2023-03-03T14:58:39;38.60;;;14.43;;
44893;SDS011;30625;52.206;21.030;2023-03-03T15:03:57;36.15;;;13.63;;
44893;SDS011;30625;52.206;21.030;2023-03-03T15:06:39;39.35;;;14.90;;
44893;SDS011;30625;52.206;21.030;2023-03-03T15:09:21;39.22;;;14.15;;
44893;SDS011;30625;52.206;21.030;2023-03-03T15:11:55;37.35;;;13.38;;
44893;SDS011;30625;52.206;21.030;2023-03-03T15:14:29;33.55;;;13.88;;
44893;SDS011;30625;52.206;21.030;2023-03-03T15:25:34;36.15;;;12.77;;
44893;SDS011;30625;52.206;21.030;2023-03-03T15:36:30;36.78;;;14.93;;
44893;SDS011;30625;52.206;21.030;2023-03-03T15:50:14;31.48;;;13.00;;
44893;SDS011;30625;52.206;21.030;2023-03-03T15:55:58;33.90;;;14.20;;
44893;SDS011;30625;52.206;21.030;2023-03-03T16:04:36;30.58;;;13.07;;
44893;SDS011;30625;52.206;21.030;2023-03-03T16:09:56;36.88;;;15.85;;
44893;SDS011;30625;52.206;21.030;2023-03-03T16:46:31;40.30;;;16.05;;
44893;SDS011;30625;52.206;21.030;2023-03-03T16:52:28;41.90;;;17.10;;
44893;SDS011;30625;52.206;21.030;2023-03-03T16:55:16;45.30;;;17.40;;
44893;SDS011;30625;52.206;21.030;2023-03-03T17:01:20;48.65;;;17.75;;
44893;SDS011;30625;52.206;21.030;2023-03-03T17:12:17;41.45;;;17.38;;
44893;SDS011;30625;52.206;21.030;2023-03-03T17:20:42;34.63;;;15.93;;
44893;SDS011;30625;52.206;21.030;2023-03-03T17:31:49;41.35;;;16.23;;
44893;SDS011;30625;52.206;21.030;2023-03-03T17:45:18;35.33;;;15.75;;
44893;SDS011;30625;52.206;21.030;2023-03-03T18:04:43;36.08;;;16.20;;
44893;SDS011;30625;52.206;21.030;2023-03-03T18:07:34;40.75;;;16.98;;
44893;SDS011;30625;52.206;21.030;2023-03-03T18:16:19;44.00;;;16.67;;
44893;SDS011;30625;52.206;21.030;2023-03-03T18:21:57;42.42;;;17.10;;
44893;SDS011;30625;52.206;21.030;2023-03-03T18:24:37;36.97;;;17.15;;
44893;SDS011;30625;52.206;21.030;2023-03-03T18:35:44;46.75;;;17.05;;
44893;SDS011;30625;52.206;21.030;2023-03-03T18:40:49;40.80;;;16.35;;
44893;SDS011;30625;52.206;21.030;2023-03-03T18:48:52;43.97;;;19.15;;
44893;SDS011;30625;52.206;21.030;2023-03-03T19:02:37;49.15;;;19.35;;
44893;SDS011;30625;52.206;21.030;2023-03-03T19:04:54;47.55;;;19.20;;
44893;SDS011;30625;52.206;21.030;2023-03-03T19:10:07;45.30;;;19.23;;
44893;SDS011;30625;52.206;21.030;2023-03-03T19:21:28;44.63;;;19.83;;
44893;SDS011;30625;52.206;21.030;2023-03-03T19:26:57;44.65;;;19.33;;
44893;SDS011;30625;52.206;21.030;2023-03-03T19:30:26;42.45;;;17.65;;
44893;SDS011;30625;52.206;21.030;2023-03-03T19:42:00;46.17;;;19.17;;
44893;SDS011;30625;52.206;21.030;2023-03-03T19:45:01;48.50;;;19.08;;
44893;SDS011;30625;52.206;21.030;2023-03-03T20:01:31;42.50;;;18.77;;
44893;SDS011;30625;52.206;21.030;2023-03-03T20:04:22;41.75;;;19.20;;
44893;SDS011;30625;52.206;21.030;2023-03-03T20:07:32;39.35;;;17.35;;
44893;SDS011;30625;52.206;21.030;2023-03-03T20:16:20;41.50;;;18.10;;
44893;SDS011;30625;52.206;21.030;2023-03-03T20:19:19;41.63;;;17.63;;
44893;SDS011;30625;52.206;21.030;2023-03-03T20:22:18;38.53;;;17.05;;
44893;SDS011;30625;52.206;21.030;2023-03-03T20:27:58;42.10;;;17.40;;
44893;SDS011;30625;52.206;21.030;2023-03-03T20:30:52;38.83;;;18.35;;
44893;SDS011;30625;52.206;21.030;2023-03-03T20:42:01;45.78;;;20.20;;
44893;SDS011;30625;52.206;21.030;2023-03-03T20:45:05;49.33;;;20.75;;
44893;SDS011;30625;52.206;21.030;2023-03-03T20:55:23;55.08;;;23.02;;
44893;SDS011;30625;52.206;21.030;2023-03-03T20:58:23;57.03;;;24.65;;
44893;SDS011;30625;52.206;21.030;2023-03-03T21:01:10;55.28;;;22.33;;
44893;SDS011;30625;52.206;21.030;2023-03-03T21:03:40;53.63;;;23.15;;
44893;SDS011;30625;52.206;21.030;2023-03-03T21:06:14;58.53;;;25.10;;
44893;SDS011;30625;52.206;21.030;2023-03-03T21:14:10;50.72;;;20.92;;
44893;SDS011;30625;52.206;21.030;2023-03-03T21:16:45;50.33;;;21.15;;
44893;SDS011;30625;52.206;21.030;2023-03-03T21:19:12;50.17;;;20.70;;
44893;SDS011;30625;52.206;21.030;2023-03-03T21:21:50;45.67;;;19.65;;
44893;SDS011;30625;52.206;21.030;2023-03-03T21:24:16;45.95;;;18.83;;
44893;SDS011;30625;52.206;21.030;2023-03-03T21:26:46;47.45;;;20.08;;
44893;SDS011;30625;52.206;21.030;2023-03-03T21:29:15;48.85;;;19.42;;
44893;SDS011;30625;52.206;21.030;2023-03-03T21:31:54;54.40;;;19.98;;
44893;SDS011;30625;52.206;21.030;2023-03-03T21:34:34;43.55;;;18.85;;
44893;SDS011;30625;52.206;21.030;2023-03-03T21:37:44;51.60;;;19.30;;
44893;SDS011;30625;52.206;21.030;2023-03-03T21:40:12;47.33;;;21.20;;
44893;SDS011;30625;52.206;21.030;2023-03-03T21:42:40;47.30;;;18.88;;
44893;SDS011;30625;52.206;21.030;2023-03-03T21:45:13;48.78;;;19.90;;
44893;SDS011;30625;52.206;21.030;2023-03-03T21:47:40;52.65;;;21.48;;
44893;SDS011;30625;52.206;21.030;2023-03-03T21:50:06;56.03;;;21.55;;
44893;SDS011;30625;52.206;21.030;2023-03-03T21:54:58;54.58;;;21.25;;
44893;SDS011;30625;52.206;21.030;2023-03-03T21:57:23;49.83;;;20.98;;
44893;SDS011;30625;52.206;21.030;2023-03-03T21:59:49;55.65;;;23.00;;
44893;SDS011;30625;52.206;21.030;2023-03-03T22:02:15;55.63;;;23.20;;
44893;SDS011;30625;52.206;21.030;2023-03-03T22:04:41;51.50;;;22.23;;
44893;SDS011;30625;52.206;21.030;2023-03-03T22:07:07;54.50;;;22.08;;
44893;SDS011;30625;52.206;21.030;2023-03-03T22:09:33;53.50;;;22.00;;
44893;SDS011;30625;52.206;21.030;2023-03-03T22:11:59;55.33;;;21.95;;
44893;SDS011;30625;52.206;21.030;2023-03-03T22:14:25;53.00;;;21.75;;
44893;SDS011;30625;52.206;21.030;2023-03-03T22:16:50;51.10;;;21.70;;
44893;SDS011;30625;52.206;21.030;2023-03-03T22:19:16;60.17;;;21.38;;
44893;SDS011;30625;52.206;21.030;2023-03-03T22:21:42;45.65;;;20.30;;
44893;SDS011;30625;52.206;21.030;2023-03-03T22:24:07;56.47;;;20.92;;
44893;SDS011;30625;52.206;21.030;2023-03-03T22:26:33;54.65;;;21.35;;
44893;SDS011;30625;52.206;21.030;2023-03-03T22:28:59;51.78;;;21.10;;
44893;SDS011;30625;52.206;21.030;2023-03-03T22:31:25;49.65;;;21.25;;
44893;SDS011;30625;52.206;21.030;2023-03-03T22:33:51;60.67;;;20.73;;
44893;SDS011;30625;52.206;21.030;2023-03-03T22:36:16;52.30;;;21.83;;
44893;SDS011;30625;52.206;21.030;2023-03-03T22:38:43;52.40;;;21.30;;
44893;SDS011;30625;52.206;21.030;2023-03-03T22:41:09;49.67;;;21.67;;
44893;SDS011;30625;52.206;21.030;2023-03-03T22:43:34;46.17;;;20.55;;
44893;SDS011;30625;52.206;21.030;2023-03-03T22:46:00;45.83;;;19.02;;
44893;SDS011;30625;52.206;21.030;2023-03-03T22:48:26;46.17;;;19.88;;